Soaring Guidance
Issued by NWS Reno, NV

Home | Current Version | Previous Version | Text Only | Print | Product List | Glossary On
Versions: 1 2 3 4 5 6 7 8
000
UXUS97 KREV 221444
SRGREV

SOARING FORECAST
NATIONAL WEATHER SERVICE - RENO NV
700 AM PDT THU JUN 22 2017

THIS SOARING FORECAST IS FOR THE EASTERN SIERRA AND WESTERN NEVADA
WITH SPECIFIC INDICES FOR THE GREATER RENO AREA.

THIS FORECAST IS PREPARED DAILY BY 700 AM AND IS NOT UPDATED.

FOR CURRENT FLIGHT CONDITIONS...FORECASTS...AND ADVISORIES...ACCESS
YOUR LOCAL BRIEFING OUTLET OR FLIGHT SERVICE STATION.

*******************************************************************
FORECASTED LOCAL INDICES FOR RENO:        TODAY     YESTERDAY
FORECASTED MAX TEMP AT RENO (DEG F).....     95          98
FORECASTED TRIGGER TEMPERATURE (DEG F)..     82          85
   EXCEEDED YESTERDAY BY 1155 AM PDT
FORECASTED MAXIMUM ALTITUDE (FT MSL)....  14800       17800
FORECASTED SOARING INDEX (FPM)..........    864        1164
FORECASTED K-INDEX.........VALID 18Z....      9          27
FORECASTED K-INDEX.........VALID 00Z....     15          32
FORECASTED LIFTED INDEX....VALID 18Z....      9          -1
FORECASTED LIFTED INDEX....VALID 00Z....      5          -2

AFTERNOON WINDS ALOFT FORECAST
MSL (FT) WIND/TEMP
9000  0309/+17
10000 1708/+15
12000 2806/+11
14000 2906/+05
16000 3106/+00
18000 3307/-05
24000 2909/-19
30000 3413/-35
34000 3411/-45
39000 2828/-53

SLIDE MOUNTAIN DATA:
     DATE       TIME     TEMP  DEWPT   RH         WIND (MPH)
                        (F)   (F)           | DIR  SPEED GUST
2017-06-22    05:20      54    33     32    | 028   20   23
2017-06-22    05:00      54    33     33    | 023   20   22
2017-06-22    04:50      55    34     34    | 031   20   24
2017-06-22    04:30      55    35     35    | 032   23   28

RENO TAF FORECAST:
KRNO 221120Z 2212/2312 VRB04KT P6SM SKC
     FM221900 07008KT P6SM SKC
     FM230400 VRB04KT P6SM SKC

CARSON CITY TAF FORECAST:
KCXP 221120Z 2212/2312 VRB03KT P6SM SKC
     FM221800 10008KT P6SM SKC
     FM230200 VRB04KT P6SM SKC

OUTLOOK FOR THE RENO-CARSON CITY-MINDEN AREA:
.FRIDAY...SUNNY. HIGHS 92 TO 102. LIGHT WINDS.

SUNRISE AND SUNSET
JUNE 22 2017..........SUNRISE   532 AM PDT   SUNSET   830 PM PDT
JUNE 23 2017..........SUNRISE   533 AM PDT   SUNSET   830 PM PDT



USA.gov is the U.S. government's official web portal to all federal, state and local government web resources and services.